createdAt,value
2019-05-21T00:00:19.495Z,3.7
2019-05-21T00:02:19.010Z,4.4
2019-05-21T00:04:28.701Z,12.1
2019-05-21T00:06:18.193Z,12.8
2019-05-21T00:08:17.906Z,4.1
2019-05-21T00:10:17.740Z,6.6
2019-05-21T00:12:19.480Z,3.8
2019-05-21T00:14:18.933Z,3.9
2019-05-21T00:16:18.650Z,10.6
2019-05-21T00:18:18.350Z,4.8
2019-05-21T00:20:18.180Z,4
2019-05-21T00:22:17.989Z,5.5
2019-05-21T00:24:17.648Z,4.8
2019-05-21T00:26:19.201Z,3.8
2019-05-21T00:28:18.572Z,4.4
2019-05-21T00:30:18.297Z,3.6
2019-05-21T00:32:17.907Z,6.3
2019-05-21T00:34:19.543Z,6.6
2019-05-21T00:36:18.857Z,11
2019-05-21T00:38:18.499Z,8
2019-05-21T00:40:18.229Z,4.9
2019-05-21T00:42:17.885Z,4.4
2019-05-21T00:44:19.614Z,4.8
2019-05-21T00:46:18.907Z,7.4
2019-05-21T00:48:18.544Z,4.8
2019-05-21T00:50:18.300Z,5.5
2019-05-21T00:52:17.987Z,4.1
2019-05-21T00:54:19.625Z,5
2019-05-21T00:56:18.892Z,5.1
2019-05-21T00:58:18.705Z,4.4
2019-05-21T01:00:18.313Z,4.1
2019-05-21T01:02:18.025Z,4.1
2019-05-21T01:04:19.571Z,7.4
2019-05-21T01:06:18.823Z,4.5
2019-05-21T01:08:18.560Z,8.1
2019-05-21T01:10:18.267Z,5.4
2019-05-21T01:12:17.931Z,3.9
2019-05-21T01:14:19.645Z,11.4
2019-05-21T01:16:18.953Z,7.8
2019-05-21T01:18:18.525Z,18.3
2019-05-21T01:20:18.220Z,4.2
2019-05-21T01:22:17.923Z,4.2
2019-05-21T01:24:19.651Z,11.4
2019-05-21T01:26:19.089Z,4.3
2019-05-21T01:28:18.502Z,3.8
2019-05-21T01:30:18.311Z,5.9
2019-05-21T01:32:18.065Z,4.1
2019-05-21T01:34:17.705Z,5.4
2019-05-21T01:36:19.435Z,18.7
2019-05-21T01:38:17.944Z,3.6
2019-05-21T01:40:18.740Z,9.3
2019-05-21T01:42:18.509Z,3.7
2019-05-21T01:44:18.143Z,5.7
2019-05-21T01:46:17.830Z,10
2019-05-21T01:48:19.616Z,4.1
2019-05-21T01:50:19.158Z,6.6
2019-05-21T01:52:18.634Z,5.2
2019-05-21T01:54:18.244Z,4
2019-05-21T01:56:18.005Z,6.9
2019-05-21T01:58:19.681Z,11.6
2019-05-21T02:00:19.181Z,4
2019-05-21T02:02:18.613Z,9.9
2019-05-21T02:04:18.185Z,5.2
2019-05-21T02:06:17.908Z,5.6
2019-05-21T02:08:17.707Z,5.2
2019-05-21T02:10:19.261Z,5.5
2019-05-21T02:12:18.737Z,14
2019-05-21T02:14:18.308Z,6.6
2019-05-21T02:16:18.144Z,5.7
2019-05-21T02:18:17.960Z,8.6
2019-05-21T02:20:19.665Z,6.9
2019-05-21T02:22:19.123Z,4.4
2019-05-21T02:24:18.579Z,3.9
2019-05-21T02:26:18.427Z,7.5
2019-05-21T02:28:18.079Z,10
2019-05-21T02:30:17.759Z,6.6
2019-05-21T02:32:19.478Z,6.3
2019-05-21T02:34:18.952Z,7.1
2019-05-21T02:36:18.401Z,5.1
2019-05-21T02:38:18.042Z,4.7
2019-05-21T02:40:17.702Z,6.4
2019-05-21T02:42:19.412Z,4.9
2019-05-21T02:44:18.809Z,4.7
2019-05-21T02:46:18.541Z,4.3
2019-05-21T02:48:18.194Z,9.2
2019-05-21T02:50:17.909Z,7.2
2019-05-21T02:52:19.626Z,6.4
2019-05-21T02:54:18.659Z,7.9
2019-05-21T02:56:18.463Z,5.8
2019-05-21T02:58:18.226Z,5.4
2019-05-21T03:00:17.927Z,6.3
2019-05-21T03:02:19.620Z,5.8
2019-05-21T03:04:19.069Z,6.6
2019-05-21T03:06:18.575Z,12.6
2019-05-21T03:08:18.262Z,4.6
2019-05-21T03:10:18.021Z,5
2019-05-21T03:12:17.914Z,7.1
2019-05-21T03:14:19.568Z,7.9
2019-05-21T03:16:18.833Z,5.5
2019-05-21T03:18:18.606Z,4.5
2019-05-21T03:20:18.306Z,5.7
2019-05-21T03:22:17.873Z,12.1
2019-05-21T03:24:19.635Z,4.2
2019-05-21T03:26:19.185Z,6.6
2019-05-21T03:28:18.658Z,4.4
2019-05-21T03:30:18.355Z,7.9
2019-05-21T03:32:18.086Z,4.1
2019-05-21T03:34:17.711Z,13.7
2019-05-21T03:36:34.217Z,5.6
2019-05-21T03:38:18.855Z,4.2
2019-05-21T03:40:18.803Z,4.2
2019-05-21T03:42:18.560Z,11.6
2019-05-21T03:44:18.225Z,8.6
2019-05-21T03:46:18.005Z,5.9
2019-05-21T03:48:19.525Z,4.9
2019-05-21T03:50:19.060Z,6.9
2019-05-21T03:52:18.577Z,6.1
2019-05-21T03:54:18.306Z,4.8
2019-05-21T03:56:18.111Z,7.3
2019-05-21T03:58:17.715Z,6
2019-05-21T04:00:19.481Z,4.3
2019-05-21T04:02:18.936Z,5.9
2019-05-21T04:04:18.675Z,10.5
2019-05-21T04:06:18.492Z,6.8
2019-05-21T04:08:18.202Z,7.6
2019-05-21T04:10:17.904Z,6.1
2019-05-21T04:12:17.599Z,5
2019-05-21T04:14:19.314Z,5.6
2019-05-21T04:16:18.896Z,5.3
2019-05-21T04:18:17.551Z,7.6
2019-05-21T04:20:18.258Z,6.8
2019-05-21T04:22:17.999Z,11.1
2019-05-21T04:24:17.596Z,7.3
2019-05-21T04:26:19.147Z,8.9
2019-05-21T04:28:17.590Z,6.9
2019-05-21T04:30:18.295Z,14.8
2019-05-21T04:32:18.132Z,6.7
2019-05-21T04:34:17.818Z,6.1
2019-05-21T04:36:19.623Z,7.2
2019-05-21T04:38:19.075Z,9.8
2019-05-21T04:40:18.758Z,15.8
2019-05-21T04:42:18.393Z,9.4
2019-05-21T04:44:18.077Z,8.6
2019-05-21T04:46:17.831Z,9.2
2019-05-21T04:48:19.658Z,10.2
2019-05-21T04:50:18.788Z,10.2
2019-05-21T04:52:18.378Z,11.7
2019-05-21T04:54:18.042Z,11
2019-05-21T04:56:17.755Z,9.6
2019-05-21T04:58:18.616Z,8.9
2019-05-21T05:00:18.271Z,9.9
2019-05-21T05:02:18.106Z,9.1
2019-05-21T05:04:22.434Z,9.4
2019-05-21T05:06:19.370Z,9.7
2019-05-21T05:08:18.814Z,11.8
2019-05-21T05:10:18.612Z,12
2019-05-21T05:12:18.369Z,13.3
2019-05-21T05:14:16.946Z,8.6
2019-05-21T05:16:17.697Z,7.5
2019-05-21T05:18:18.633Z,11
2019-05-21T05:20:18.380Z,12.1
2019-05-21T05:22:17.957Z,7.9
2019-05-21T05:24:17.603Z,8.5
2019-05-21T05:26:18.720Z,6.3
2019-05-21T05:28:18.388Z,7.9
2019-05-21T05:30:18.090Z,8.4
2019-05-21T05:32:17.752Z,8.2
2019-05-21T05:34:19.448Z,8.4
2019-05-21T05:36:17.733Z,6.7
2019-05-21T05:38:18.319Z,9.6
2019-05-21T05:40:18.056Z,9.9
2019-05-21T05:42:17.763Z,17
2019-05-21T05:44:18.524Z,8.9
2019-05-21T05:46:17.749Z,9.5
2019-05-21T05:48:18.414Z,10
2019-05-21T05:50:17.138Z,7.1
2019-05-21T05:52:17.843Z,9.8
2019-05-21T05:54:19.665Z,5.5
2019-05-21T05:56:18.966Z,15.9
2019-05-21T05:58:18.426Z,5.5
2019-05-21T06:00:18.323Z,6.8
2019-05-21T06:02:18.091Z,6.2
2019-05-21T06:04:16.722Z,6.9
2019-05-21T06:06:19.358Z,8.9
2019-05-21T06:08:18.795Z,8.9
2019-05-21T06:10:18.610Z,6.6
2019-05-21T06:12:18.142Z,11.5
2019-05-21T06:14:17.727Z,6.7
2019-05-21T06:16:18.818Z,9.6
2019-05-21T06:18:18.515Z,10.1
2019-05-21T06:20:18.257Z,6.1
2019-05-21T06:22:18.008Z,6.5
2019-05-21T06:24:19.563Z,12.6
2019-05-21T06:26:18.721Z,9.4
2019-05-21T06:28:18.377Z,6.8
2019-05-21T06:30:17.048Z,6.9
2019-05-21T06:32:17.711Z,6.8
2019-05-21T06:34:19.488Z,6.2
2019-05-21T06:36:18.742Z,5.8
2019-05-21T06:38:18.763Z,6.9
2019-05-21T06:40:18.186Z,6.4
2019-05-21T06:42:16.869Z,10.5
2019-05-21T06:44:19.794Z,10.3
2019-05-21T06:46:18.602Z,8.5
2019-05-21T06:48:18.515Z,10.7
2019-05-21T06:50:18.307Z,6.5
2019-05-21T06:52:16.924Z,5.5
2019-05-21T06:54:19.670Z,6.6
2019-05-21T06:56:18.872Z,6.7
2019-05-21T06:58:18.743Z,6.6
2019-05-21T07:00:18.318Z,9.9
2019-05-21T07:02:17.849Z,8.5
2019-05-21T07:04:16.639Z,8.2
2019-05-21T07:06:19.191Z,6.3
2019-05-21T07:08:35.283Z,12.2
2019-05-21T07:10:18.454Z,6
2019-05-21T07:12:17.168Z,4.6
2019-05-21T07:14:17.834Z,5.2
2019-05-21T07:16:18.599Z,13.3
2019-05-21T07:18:18.164Z,5.7
2019-05-21T07:20:17.731Z,6.4
2019-05-21T07:22:17.331Z,5.2
2019-05-21T07:24:16.969Z,5.4
2019-05-21T07:26:16.694Z,4.3
2019-05-21T07:28:19.522Z,4.1
2019-05-21T07:30:19.026Z,6.3
2019-05-21T07:32:17.480Z,3.8
2019-05-21T07:34:17.273Z,3.6
2019-05-21T07:36:16.896Z,3.4
2019-05-21T07:38:18.675Z,14.1
2019-05-21T07:40:17.916Z,3.8
2019-05-21T07:42:18.708Z,4.6
2019-05-21T07:44:18.181Z,4.7
2019-05-21T07:46:16.921Z,6.6
2019-05-21T07:48:18.654Z,5.9
2019-05-21T07:50:18.192Z,4.3
2019-05-21T07:52:17.623Z,3.8
2019-05-21T07:54:17.208Z,3.8
2019-05-21T07:56:16.786Z,3.2
2019-05-21T07:58:18.593Z,6.2
2019-05-21T08:00:18.134Z,3
2019-05-21T08:02:18.608Z,4.8
2019-05-21T08:04:18.232Z,2.7
2019-05-21T08:06:17.049Z,4.9
2019-05-21T08:08:17.678Z,3.1
2019-05-21T08:10:19.208Z,2.4
2019-05-21T08:12:39.773Z,6.4
2019-05-21T08:14:17.334Z,11
2019-05-21T08:16:16.996Z,3.4
2019-05-21T08:18:16.668Z,4.2
2019-05-21T08:20:18.528Z,4.7
2019-05-21T08:22:19.003Z,2.7
2019-05-21T08:24:17.452Z,2.9
2019-05-21T08:26:18.129Z,2.6
2019-05-21T08:28:16.756Z,3.5
2019-05-21T08:30:18.511Z,3.6
2019-05-21T08:32:17.947Z,8.1
2019-05-21T08:34:17.448Z,3
2019-05-21T08:36:17.112Z,2
2019-05-21T08:38:16.801Z,1.7
2019-05-21T08:40:18.291Z,2.1
2019-05-21T08:42:17.736Z,2.2
2019-05-21T08:44:17.379Z,4.1
2019-05-21T08:46:17.155Z,5.4
2019-05-21T08:48:16.792Z,1.9
2019-05-21T08:50:18.596Z,14.5
2019-05-21T08:52:18.051Z,5.6
2019-05-21T08:54:17.535Z,1.2
2019-05-21T08:56:17.217Z,1.6
2019-05-21T08:58:16.987Z,4.3
2019-05-21T09:00:18.624Z,2.1
2019-05-21T09:02:18.073Z,2.2
2019-05-21T09:04:17.598Z,2.1
2019-05-21T09:06:17.378Z,2.4
2019-05-21T09:08:17.139Z,2.2
2019-05-21T09:10:16.944Z,2.1
2019-05-21T09:12:16.774Z,2.2
2019-05-21T09:14:18.440Z,1.9
2019-05-21T09:16:17.818Z,1.5
2019-05-21T09:18:17.339Z,1.4
2019-05-21T09:20:17.135Z,3.4
2019-05-21T09:22:16.762Z,1.4
2019-05-21T09:24:18.543Z,1.7
2019-05-21T09:26:18.543Z,1.8
2019-05-21T09:28:17.661Z,2.5
2019-05-21T09:30:17.307Z,2.7
2019-05-21T09:32:17.087Z,9.8
2019-05-21T09:34:16.717Z,2.6
2019-05-21T09:36:18.235Z,2
2019-05-21T09:38:18.221Z,1.4
2019-05-21T09:40:17.557Z,2.6
2019-05-21T09:42:17.148Z,1.3
2019-05-21T09:44:16.846Z,1
2019-05-21T09:46:18.609Z,1.1
2019-05-21T09:48:18.059Z,1.6
2019-05-21T09:50:17.605Z,0.9
2019-05-21T09:52:17.284Z,1.2
2019-05-21T09:54:16.918Z,1.4
2019-05-21T09:56:16.639Z,1.9
2019-05-21T09:58:18.565Z,10
2019-05-21T10:00:18.169Z,3
2019-05-21T10:02:17.697Z,1.7
2019-05-21T10:04:17.314Z,0.7
2019-05-21T10:06:17.054Z,0.9
2019-05-21T10:08:16.715Z,2
2019-05-21T10:10:18.208Z,1.3
2019-05-21T10:12:17.698Z,6.2
2019-05-21T10:14:17.351Z,1.7
2019-05-21T10:16:17.068Z,0.9
2019-05-21T10:18:18.629Z,1.8
2019-05-21T10:20:18.257Z,6.9
2019-05-21T10:22:17.726Z,5.9
2019-05-21T10:24:17.293Z,1
2019-05-21T10:26:16.946Z,1.3
2019-05-21T10:28:16.585Z,0.8
2019-05-21T10:30:18.369Z,1.8
2019-05-21T10:32:17.854Z,1.1
2019-05-21T10:34:17.489Z,1.4
2019-05-21T10:36:17.287Z,1
2019-05-21T10:38:16.971Z,1.8
2019-05-21T10:40:16.821Z,0.7
2019-05-21T10:42:18.598Z,2.3
2019-05-21T10:44:18.055Z,1.7
2019-05-21T10:46:17.585Z,2.2
2019-05-21T10:48:17.192Z,0.8
2019-05-21T10:50:16.917Z,1
2019-05-21T10:52:18.573Z,1.5
2019-05-21T10:54:18.224Z,12.4
2019-05-21T10:56:17.722Z,2.4
2019-05-21T10:58:17.379Z,4.3
2019-05-21T11:00:17.031Z,5.4
2019-05-21T11:02:16.676Z,2.5
2019-05-21T11:04:18.378Z,1.8
2019-05-21T11:06:17.691Z,1.8
2019-05-21T11:08:25.701Z,2.6
2019-05-21T11:10:17.313Z,2.3
2019-05-21T11:12:17.059Z,2.4
2019-05-21T11:14:16.678Z,2.3
2019-05-21T11:16:17.783Z,3
2019-05-21T11:18:17.427Z,2.8
2019-05-21T11:20:17.226Z,2.4
2019-05-21T11:22:17.002Z,1.9
2019-05-21T11:24:16.754Z,1.4
2019-05-21T11:26:18.117Z,1.9
2019-05-21T11:28:17.567Z,1.8
2019-05-21T11:30:17.223Z,1.6
2019-05-21T11:32:16.858Z,1.6
2019-05-21T11:34:18.548Z,1.7
2019-05-21T11:36:17.846Z,1.6
2019-05-21T11:38:17.477Z,2.2
2019-05-21T11:40:17.196Z,5.2
2019-05-21T11:42:16.751Z,1.3
2019-05-21T11:44:18.454Z,1.5
2019-05-21T11:46:17.791Z,1.3
2019-05-21T11:48:17.419Z,1.8
2019-05-21T11:50:17.241Z,3.3
2019-05-21T11:52:16.902Z,1.5
2019-05-21T11:54:18.626Z,3.9
2019-05-21T11:56:18.414Z,5.4
2019-05-21T11:58:17.765Z,4.6
2019-05-21T12:00:21.995Z,1.5
2019-05-21T12:02:17.217Z,12.2
2019-05-21T12:04:16.982Z,1.2
2019-05-21T12:06:16.801Z,1.9
2019-05-21T12:08:18.555Z,1.2
2019-05-21T12:10:17.964Z,2.9
2019-05-21T12:12:17.424Z,1.3
2019-05-21T12:14:16.956Z,3.7
2019-05-21T12:16:16.774Z,3.5
2019-05-21T12:18:18.486Z,2.8
2019-05-21T12:20:37.274Z,3.9
2019-05-21T12:22:17.665Z,5
2019-05-21T12:24:17.326Z,3.6
2019-05-21T12:26:17.226Z,8.2
2019-05-21T12:28:16.974Z,10.5
2019-05-21T12:30:16.809Z,3.4
2019-05-21T12:32:21.507Z,2.7
2019-05-21T12:34:18.120Z,4.1
2019-05-21T12:36:17.650Z,4
2019-05-21T12:38:17.283Z,4.2
2019-05-21T12:40:16.986Z,2.6
2019-05-21T12:42:16.757Z,2.2
2019-05-21T12:44:18.555Z,3.5
2019-05-21T12:46:17.884Z,2.6
2019-05-21T12:48:17.544Z,2.3
2019-05-21T12:50:17.175Z,3.9
2019-05-21T12:52:16.942Z,2.2
2019-05-21T12:54:16.599Z,2.1
2019-05-21T12:56:18.373Z,2.9
2019-05-21T12:58:17.789Z,2.4
2019-05-21T13:00:17.432Z,2.1
2019-05-21T13:02:17.084Z,4.2
2019-05-21T13:04:16.757Z,1.5
2019-05-21T13:06:18.372Z,1.7
2019-05-21T13:08:17.883Z,2.1
2019-05-21T13:10:17.589Z,1.9
2019-05-21T13:12:17.178Z,1.7
2019-05-21T13:14:19.233Z,2.1
2019-05-21T13:16:18.611Z,3.6
2019-05-21T13:18:18.141Z,2.4
2019-05-21T13:20:17.662Z,2.4
2019-05-21T13:22:17.344Z,6
2019-05-21T13:24:17.033Z,3.1
2019-05-21T13:26:16.846Z,3.7
2019-05-21T13:28:18.635Z,1.4
2019-05-21T13:30:18.171Z,3.4
2019-05-21T13:32:17.659Z,3.2
2019-05-21T13:34:17.311Z,5.5
2019-05-21T13:36:17.136Z,3.4
2019-05-21T13:38:16.783Z,2.3
2019-05-21T13:40:18.623Z,1.6
2019-05-21T13:42:18.129Z,1.8
2019-05-21T13:44:17.610Z,1.3
2019-05-21T13:46:17.398Z,2.2
2019-05-21T13:48:17.022Z,1.8
2019-05-21T13:50:16.831Z,3.8
2019-05-21T13:52:16.599Z,3.7
2019-05-21T13:54:18.498Z,2.8
2019-05-21T13:56:17.957Z,3.8
2019-05-21T13:58:17.394Z,1.6
2019-05-21T14:00:17.079Z,6.1
2019-05-21T14:02:16.801Z,2.3
2019-05-21T14:04:18.512Z,1.6
2019-05-21T14:06:20.689Z,4.1
2019-05-21T14:08:17.735Z,1.5
2019-05-21T14:10:22.052Z,1.6
2019-05-21T14:12:17.204Z,2.3
2019-05-21T14:14:16.838Z,1.6
2019-05-21T14:16:17.992Z,1.4
2019-05-21T14:18:17.424Z,3.1
2019-05-21T14:20:17.145Z,1.3
2019-05-21T14:22:16.966Z,3.6
2019-05-21T14:24:16.661Z,1.5
2019-05-21T14:26:18.226Z,3.2
2019-05-21T14:28:17.706Z,1.7
2019-05-21T14:30:17.507Z,1.6
2019-05-21T14:32:17.112Z,1.5
2019-05-21T14:34:16.652Z,2.1
2019-05-21T14:36:18.308Z,1.5
2019-05-21T14:38:17.778Z,1.6
2019-05-21T14:40:32.771Z,1.3
2019-05-21T14:42:17.120Z,5.4
2019-05-21T14:44:16.807Z,1.3
2019-05-21T14:46:18.390Z,1.5
2019-05-21T14:48:17.914Z,1.7
2019-05-21T14:50:17.491Z,2.6
2019-05-21T14:52:17.303Z,1.4
2019-05-21T14:54:27.246Z,2.1
2019-05-21T14:56:16.857Z,1.7
2019-05-21T14:58:18.824Z,1.3
2019-05-21T15:00:18.068Z,3
2019-05-21T15:02:17.499Z,5
2019-05-21T15:04:17.310Z,1.5
2019-05-21T15:06:16.954Z,4.5
2019-05-21T15:08:18.661Z,2.1
2019-05-21T15:10:18.166Z,1.1
2019-05-21T15:12:17.549Z,1
2019-05-21T15:14:17.265Z,1.3
2019-05-21T15:16:16.918Z,1.1
2019-05-21T15:18:22.594Z,1.3
2019-05-21T15:20:18.169Z,1.3
2019-05-21T15:22:17.596Z,1.1
2019-05-21T15:24:17.445Z,1.1
2019-05-21T15:26:17.142Z,1.7
2019-05-21T15:28:16.683Z,2.2
2019-05-21T15:30:18.452Z,10.7
2019-05-21T15:32:18.096Z,7.4
2019-05-21T15:34:17.608Z,1.3
2019-05-21T15:36:17.388Z,1.6
2019-05-21T15:38:17.118Z,1.7
2019-05-21T15:40:16.870Z,5
2019-05-21T15:42:18.656Z,4.2
2019-05-21T15:44:18.213Z,2.3
2019-05-21T15:46:17.828Z,2.7
2019-05-21T15:48:17.456Z,11.8
2019-05-21T15:50:17.111Z,2.3
2019-05-21T15:52:16.705Z,1.8
2019-05-21T15:54:18.403Z,1.8
2019-05-21T15:56:17.972Z,5.2
2019-05-21T15:58:17.493Z,2.7
2019-05-21T16:00:17.125Z,4.5
2019-05-21T16:02:16.844Z,2.5
2019-05-21T16:04:18.540Z,2.1
2019-05-21T16:06:17.865Z,1.9
2019-05-21T16:08:17.374Z,2.5
2019-05-21T16:10:17.083Z,2.2
2019-05-21T16:12:16.875Z,3.2
2019-05-21T16:14:18.611Z,3.7
2019-05-21T16:16:18.151Z,2
2019-05-21T16:18:17.669Z,2.1
2019-05-21T16:20:17.492Z,5
2019-05-21T16:22:17.157Z,3.9
2019-05-21T16:24:16.822Z,2.5
2019-05-21T16:26:18.586Z,2.8
2019-05-21T16:28:18.082Z,5.4
2019-05-21T16:30:17.562Z,4
2019-05-21T16:32:17.184Z,2.3
2019-05-21T16:34:17.012Z,2.4
2019-05-21T16:36:16.705Z,11.3
2019-05-21T16:38:18.433Z,4.2
2019-05-21T16:40:18.060Z,2.2
2019-05-21T16:42:17.521Z,3.2
2019-05-21T16:44:17.206Z,2.4
2019-05-21T16:46:17.059Z,3.6
2019-05-21T16:48:16.652Z,2.1
2019-05-21T16:50:18.622Z,2.4
2019-05-21T16:52:18.148Z,2.4
2019-05-21T16:54:17.614Z,2.5
2019-05-21T16:56:17.523Z,4.4
2019-05-21T16:58:17.062Z,2.3
2019-05-21T17:00:16.734Z,1.9
2019-05-21T17:02:18.362Z,1.6
2019-05-21T17:04:17.961Z,2.7
2019-05-21T17:06:17.582Z,3.3
2019-05-21T17:08:17.282Z,2.3
2019-05-21T17:10:17.126Z,5.2
2019-05-21T17:12:16.764Z,2.4
2019-05-21T17:14:18.425Z,6.4
2019-05-21T17:16:17.718Z,3
2019-05-21T17:18:17.476Z,2.4
2019-05-21T17:20:17.187Z,2.1
2019-05-21T17:22:16.957Z,2.2
2019-05-21T17:24:18.633Z,2
2019-05-21T17:26:18.007Z,3.4
2019-05-21T17:28:17.392Z,1.6
2019-05-21T17:30:17.135Z,2.9
2019-05-21T17:32:16.836Z,2.2
2019-05-21T17:34:18.679Z,1.3
2019-05-21T17:36:17.957Z,2
2019-05-21T17:38:17.394Z,1.8
2019-05-21T17:40:17.103Z,1.5
2019-05-21T17:42:16.960Z,1.4
2019-05-21T17:44:18.638Z,3.5
2019-05-21T17:46:17.978Z,2
2019-05-21T17:48:17.479Z,4.5
2019-05-21T17:50:17.180Z,1.2
2019-05-21T17:52:16.856Z,1.5
2019-05-21T17:54:18.505Z,1.4
2019-05-21T17:56:17.772Z,1.7
2019-05-21T17:58:17.553Z,2
2019-05-21T18:00:17.087Z,1.5
2019-05-21T18:02:16.796Z,2.2
2019-05-21T18:04:18.496Z,1.6
2019-05-21T18:06:17.798Z,1.4
2019-05-21T18:08:17.530Z,1.6
2019-05-21T18:10:17.168Z,1.3
2019-05-21T18:12:32.408Z,1.7
2019-05-21T18:14:18.546Z,1.5
2019-05-21T18:16:17.786Z,2.8
2019-05-21T18:18:17.392Z,1.5
2019-05-21T18:20:17.247Z,5
2019-05-21T18:22:16.871Z,2.3
2019-05-21T18:24:18.604Z,8.1
2019-05-21T18:26:18.215Z,1.3
2019-05-21T18:28:17.662Z,2.2
2019-05-21T18:30:17.461Z,1.4
2019-05-21T18:32:17.102Z,1.6
2019-05-21T18:34:16.695Z,1.8
2019-05-21T18:36:18.227Z,1.7
2019-05-21T18:38:17.725Z,1.6
2019-05-21T18:40:17.434Z,1
2019-05-21T18:42:22.842Z,2.3
2019-05-21T18:44:16.821Z,1.1
2019-05-21T18:46:18.603Z,2.7
2019-05-21T18:48:17.996Z,5.7
2019-05-21T18:50:17.548Z,1.2
2019-05-21T18:52:17.364Z,1.3
2019-05-21T18:54:17.158Z,1.3
2019-05-21T18:56:16.837Z,3.1
2019-05-21T18:58:17.966Z,0.7
2019-05-21T19:00:18.453Z,11.9
2019-05-21T19:02:17.950Z,0.5
2019-05-21T19:04:17.415Z,0.8
2019-05-21T19:06:17.317Z,2.4
2019-05-21T19:08:17.038Z,0.5
2019-05-21T19:10:16.811Z,0.5
2019-05-21T19:12:18.637Z,1
2019-05-21T19:14:18.131Z,0.6
2019-05-21T19:16:17.670Z,0.8
2019-05-21T19:18:17.299Z,0.6
2019-05-21T19:20:16.931Z,0.8
2019-05-21T19:22:16.584Z,0.8
2019-05-21T19:24:18.367Z,1.1
2019-05-21T19:26:17.794Z,2.2
2019-05-21T19:28:17.383Z,1.4
2019-05-21T19:30:17.051Z,1.7
2019-05-21T19:32:17.687Z,1.6
2019-05-21T19:34:18.401Z,3.8
2019-05-21T19:36:17.983Z,1.4
2019-05-21T19:38:17.432Z,1
2019-05-21T19:40:18.243Z,1.7
2019-05-21T19:42:16.909Z,1.1
2019-05-21T19:44:18.520Z,2
2019-05-21T19:46:17.889Z,2.1
2019-05-21T19:48:17.533Z,2.1
2019-05-21T19:50:17.226Z,3.7
2019-05-21T19:52:16.916Z,2.5
2019-05-21T19:54:18.689Z,3.5
2019-05-21T19:56:17.986Z,7.7
2019-05-21T19:58:17.551Z,4.3
2019-05-21T20:00:17.275Z,5.6
2019-05-21T20:02:17.162Z,6.4
2019-05-21T20:04:16.702Z,8.3
2019-05-21T20:06:18.203Z,14.6
2019-05-21T20:08:17.601Z,9
2019-05-21T20:10:17.355Z,7.3
2019-05-21T20:12:17.083Z,12
2019-05-21T20:14:17.784Z,7.8
2019-05-21T20:16:18.579Z,7.7
2019-05-21T20:18:18.091Z,9
2019-05-21T20:20:18.599Z,12.9
2019-05-21T20:22:18.316Z,8.8
2019-05-21T20:24:17.910Z,10.1
2019-05-21T20:26:17.652Z,11
2019-05-21T20:28:18.435Z,13.8
2019-05-21T20:30:17.953Z,11.6
2019-05-21T20:32:17.436Z,9.8
2019-05-21T20:34:17.102Z,14
2019-05-21T20:36:16.852Z,13.2
2019-05-21T20:38:19.559Z,14.4
2019-05-21T20:40:18.796Z,17.4
2019-05-21T20:42:18.082Z,15.4
2019-05-21T20:44:17.189Z,17.6
2019-05-21T20:46:16.890Z,16
2019-05-21T20:48:16.574Z,15.4
2019-05-21T20:50:19.304Z,16.5
2019-05-21T20:52:19.281Z,13.6
2019-05-21T20:54:17.417Z,15.7
2019-05-21T20:56:17.183Z,13.4
2019-05-21T20:58:17.883Z,12.7
2019-05-21T21:00:16.659Z,9.1
2019-05-21T21:02:19.462Z,13.8
2019-05-21T21:04:19.061Z,12.3
2019-05-21T21:06:36.124Z,18.2
2019-05-21T21:08:18.384Z,12.6
2019-05-21T21:10:18.175Z,12
2019-05-21T21:12:16.892Z,21.1
2019-05-21T21:14:18.849Z,11.4
2019-05-21T21:16:18.080Z,20.4
2019-05-21T21:18:18.604Z,12.4
2019-05-21T21:20:18.193Z,13.3
2019-05-21T21:22:18.002Z,17.2
2019-05-21T21:24:19.633Z,16.4
2019-05-21T21:26:18.905Z,11.1
2019-05-21T21:28:18.650Z,14.5
2019-05-21T21:30:18.355Z,13.7
2019-05-21T21:32:18.036Z,15.1
2019-05-21T21:34:17.586Z,13.7
2019-05-21T21:36:18.282Z,12.6
2019-05-21T21:38:18.818Z,18.1
2019-05-21T21:40:18.458Z,13.7
2019-05-21T21:42:17.267Z,23
2019-05-21T21:44:34.433Z,15.6
2019-05-21T21:46:17.702Z,14.5
2019-05-21T21:48:17.310Z,16.3
2019-05-21T21:50:16.968Z,16
2019-05-21T21:52:17.774Z,14.7
2019-05-21T21:54:19.405Z,12.4
2019-05-21T21:56:18.692Z,17
2019-05-21T21:58:17.362Z,15.5
2019-05-21T22:00:18.025Z,15.5
2019-05-21T22:02:16.662Z,14.5
2019-05-21T22:04:18.428Z,18.5
2019-05-21T22:06:18.697Z,16.1
2019-05-21T22:08:17.392Z,19.7
2019-05-21T22:10:18.139Z,16.3
2019-05-21T22:12:17.787Z,12.3
2019-05-21T22:14:19.400Z,13.6
2019-05-21T22:16:17.945Z,12.3
2019-05-21T22:18:18.458Z,17.9
2019-05-21T22:20:18.262Z,12.8
2019-05-21T22:22:17.978Z,11.5
2019-05-21T22:24:17.650Z,16
2019-05-21T22:26:18.169Z,18
2019-05-21T22:28:17.625Z,13.7
2019-05-21T22:30:18.397Z,14
2019-05-21T22:32:17.171Z,23.4
2019-05-21T22:34:17.791Z,12.8
2019-05-21T22:36:18.674Z,14.9
2019-05-21T22:38:19.154Z,19.6
2019-05-21T22:40:18.734Z,18.3
2019-05-21T22:42:18.451Z,15.4
2019-05-21T22:44:17.053Z,20.9
2019-05-21T22:46:17.879Z,13.6
2019-05-21T22:48:19.590Z,18.5
2019-05-21T22:50:19.136Z,14.7
2019-05-21T22:52:17.601Z,19.1
2019-05-21T22:54:18.280Z,13.9
2019-05-21T22:56:18.007Z,15.1
2019-05-21T22:58:16.691Z,19.2
2019-05-21T23:00:19.486Z,17.2
2019-05-21T23:02:18.932Z,23.7
2019-05-21T23:04:17.396Z,23.2
2019-05-21T23:06:18.260Z,17.1
2019-05-21T23:08:16.886Z,15.4
2019-05-21T23:10:19.650Z,17.3
2019-05-21T23:12:19.118Z,20.9
2019-05-21T23:14:18.463Z,21.9
2019-05-21T23:16:18.271Z,15.6
2019-05-21T23:18:17.887Z,17.5
2019-05-21T23:20:19.688Z,15.4
2019-05-21T23:22:19.133Z,15.1
2019-05-21T23:24:18.573Z,18.8
2019-05-21T23:26:18.268Z,14.1
2019-05-21T23:28:18.015Z,14.6
2019-05-21T23:30:17.756Z,15.7
2019-05-21T23:32:19.424Z,16.4
2019-05-21T23:34:19.030Z,19.5
2019-05-21T23:36:18.565Z,18.3
2019-05-21T23:38:18.205Z,26.4
2019-05-21T23:40:18.099Z,18.8
2019-05-21T23:42:30.109Z,14.4
2019-05-21T23:44:17.682Z,15.9
2019-05-21T23:46:19.241Z,24.8
2019-05-21T23:48:17.718Z,17.7
2019-05-21T23:50:18.364Z,15.9
2019-05-21T23:52:18.101Z,15.7
2019-05-21T23:54:16.725Z,15.4
2019-05-21T23:56:18.440Z,15.7
2019-05-21T23:58:18.893Z,21.3
